Airfield :
LOGIN :

Register | Disclaimer

   EN    FR    IT 

 










Legend :    VFR   Marginal VFR   IFR   Intensive IFR   Very Intensive IFR
Visi :
Ceiling :
>= 8 km
>= 3000ft
5 to 8 km
1000 to 3000 ft
1500m to 5 km
500 to 1000 ft
800 to 1500m
200 to 500 ft
< 800m
< 200 ft
Symbols :   Thunderstorms  Fog  Heavy snow  Heavy precipitations  Wind > 20 kt
SIGMETs :     Misc.  Thunderstorms  Icing  Turbulence  Mountain Waves  Volcanic Ashes






- Airport Elevation : 768 ft
- IATA code : MXP


LIMC - Milano Malpensa

CURRENT METAR :
  • 261120Z VRB02KT 0050 R35R/0300N R17L/0325N R35L/0300N FG OVC001 00/00 Q1028 BECMG 0300 FG

EXPIRED METARs :
  • 261050Z 22004KT 170V340 0050 R35R/0300N R17L/0275N R35L/0300N FG OVC001 00/00 Q1028 BECMG 0300 FG
  • 261020Z VRB02KT 0050 R35R/0300N R17L/0300N R35L/0350N FG OVC001 00/00 Q1029 BECMG 0300 FG
  • 260950Z VRB02KT 0050 R35R/0325N R17L/0300N R35L/0300N FG OVC001 00/00 Q1029 BECMG 0300 FG
  • 260920Z 22003KT 180V250 0050 R35R/0300N R17L/0275N R35L/0275N FZFG OVC001 M00/M00 Q1028 BECMG 0300 FG

TAF TAF LIMC
Valid from the 26 at 12:00 until the 27 at 18:00 UTC


261100Z 2612/2718 VRB05KT 0100 FG BKN001
BECMG 2612/2614 0700 BKN006
BECMG 2614/2616 4000 BR SCT010
BECMG 2622/2624 0300 FZFG BKN004
BECMG 2709/2711 4000 BR SCT010
BECMG 2716/2718 0800 FG BKN006



MET'MAP, your aeronautical weather chart ! - Copyright ORBIFLY December 2007 - Disclaimer

ORBIFLY MET'MAP TEAM :

Programming & Development : Alexandra Zaïnal
Original concept : Baudouin d'Aumeries
Technical & hardware support : Manuel Goepfert
Assistance : Marc-Olivier Méhu

Contact : metmap@orbifly.com




SOURCES & CREDITS :

   NOAA